Hamburg, New Jersey
Current Conditions -  °F | °C
As of 9:53 AM on Thursday 23 Oct 2014 (Local Time) from KFWN Reporting Station
Overcast Overcast  
Wind Chill: 52°   Ceiling: 3300
Heat Index: 52°   Visibility: 10mi
Dew Point: 46°   Wind: 6mph
Humidity: 80%   Direction: NA
Pressure: 29.76"   Gusts: NA
Location:  41.15°N, 74.58°W
Report Text: KFWN 231353Z AUTO VRB05KT 10SM OVC033 11/08 A2976 RMK AO2 RAE23B42E44 SLP079 P0001 T01110078
Loading
Personal Weather Stations






























Interactive Weather Map
Tropical Storm Tracking
New forecast layout! Learn more

10-Day Weather Forecast

Advertisements
Track Severe Weather on mobile